createdAt,value
2022-11-08T00:04:25.983Z,98925.08
2022-11-08T00:14:53.645Z,98925.93
2022-11-08T00:25:21.057Z,98928.02
2022-11-08T00:35:48.428Z,98932.62
2022-11-08T00:46:15.920Z,98939.43
2022-11-08T00:56:43.799Z,98940.75
2022-11-08T01:07:11.193Z,98931.38
2022-11-08T01:17:38.680Z,98939.43
2022-11-08T01:28:06.351Z,98933.64
2022-11-08T01:38:33.690Z,98929.19
2022-11-08T01:49:08.847Z,98928.25
2022-11-08T01:59:38.972Z,98924.02
2022-11-08T02:10:07.331Z,98914.90
2022-11-08T02:20:35.202Z,98911.34
2022-11-08T02:31:02.656Z,98909.07
2022-11-08T02:41:30.232Z,98906.60
2022-11-08T02:51:57.784Z,98901.23
2022-11-08T03:02:25.604Z,98901.88
2022-11-08T03:12:59.219Z,98902.48
2022-11-08T03:23:26.588Z,98898.79
2022-11-08T03:33:54.053Z,98899.70
2022-11-08T03:44:21.542Z,98899.77
2022-11-08T03:54:48.885Z,98904.08
2022-11-08T04:05:17.001Z,98905.16
2022-11-08T04:15:44.460Z,98910.14
2022-11-08T04:26:12.361Z,98898.51
2022-11-08T04:36:39.855Z,98893.00
2022-11-08T04:47:07.301Z,98890.33
2022-11-08T04:57:34.742Z,98886.88
2022-11-08T05:08:02.185Z,98883.93
2022-11-08T05:18:29.732Z,98888.96
2022-11-08T05:28:57.137Z,98888.10
2022-11-08T05:39:28.261Z,98892.04
2022-11-08T05:49:59.150Z,98895.25
2022-11-08T06:00:26.549Z,98903.95
2022-11-08T06:10:53.990Z,98908.61
2022-11-08T06:21:22.521Z,98917.64
2022-11-08T06:31:50.289Z,98929.05
2022-11-08T06:42:17.682Z,98934.38
2022-11-08T06:52:45.026Z,98929.61
2022-11-08T07:03:14.527Z,98923.75
2022-11-08T07:13:42.030Z,98928.92
2022-11-08T07:24:10.017Z,98934.24
2022-11-08T07:34:37.409Z,98939.69
2022-11-08T07:45:04.870Z,98940.09
2022-11-08T07:55:32.345Z,98931.66
2022-11-08T08:06:01.561Z,98934.02
2022-11-08T08:16:29.261Z,98933.61
2022-11-08T08:26:57.005Z,98927.13
2022-11-08T08:37:24.525Z,98924.15
2022-11-08T08:47:55.237Z,98929.13
2022-11-08T08:58:23.118Z,98929.86
2022-11-08T09:08:50.488Z,98934.73
2022-11-08T09:19:18.101Z,98937.52
2022-11-08T09:29:45.567Z,98931.59
2022-11-08T09:40:19.032Z,98929.77
2022-11-08T09:50:48.095Z,98916.80
2022-11-08T10:01:16.463Z,98907.39
2022-11-08T10:11:56.972Z,98888.84
2022-11-08T10:22:33.076Z,98873.86
2022-11-08T10:33:00.569Z,98861.39
2022-11-08T10:43:35.291Z,98847.19
2022-11-08T10:54:02.754Z,98834.84
2022-11-08T11:04:32.477Z,98831.77
2022-11-08T11:15:00.389Z,98823.45
2022-11-08T11:25:28.005Z,98819.99
2022-11-08T11:35:59.214Z,98811.52
2022-11-08T11:46:38.703Z,98807.86
2022-11-08T11:57:16.226Z,98799.48
2022-11-08T12:07:48.416Z,98788.11
2022-11-08T12:18:52.500Z,98784.85
2022-11-08T12:29:26.865Z,98773.45
2022-11-08T12:40:01.144Z,98760.04
2022-11-08T12:50:39.134Z,98752.73
2022-11-08T13:01:11.319Z,98750.00
2022-11-08T13:11:46.575Z,98737.80
2022-11-08T13:22:45.265Z,98736.59
2022-11-08T13:33:22.908Z,98732.93
2022-11-08T13:43:51.534Z,98728.27
2022-11-08T13:54:48.600Z,98722.59
2022-11-08T14:05:30.463Z,98718.52
2022-11-08T14:16:00.896Z,98715.45
2022-11-08T14:26:30.953Z,98708.48
2022-11-08T14:36:58.940Z,98707.34
2022-11-08T14:47:32.361Z,98702.41
2022-11-08T14:58:13.269Z,98696.10
2022-11-08T15:08:50.705Z,98696.73
2022-11-08T15:19:28.943Z,98698.56
2022-11-08T15:30:03.025Z,98700.66
2022-11-08T15:40:32.845Z,98695.94
2022-11-08T15:51:00.831Z,98692.53
2022-11-08T16:01:28.298Z,98697.70
2022-11-08T16:11:56.412Z,98696.56
2022-11-08T16:22:23.757Z,98698.15
2022-11-08T16:32:51.641Z,98707.14
2022-11-08T16:43:19.033Z,98712.09
2022-11-08T16:53:47.090Z,98714.57
2022-11-08T17:04:14.560Z,98720.92
2022-11-08T17:14:42.238Z,98732.13
2022-11-08T17:25:12.415Z,98727.94
2022-11-08T17:35:44.050Z,98734.95
2022-11-08T17:46:12.597Z,98734.41
2022-11-08T17:56:40.134Z,98737.52
2022-11-08T18:07:07.732Z,98737.69
2022-11-08T18:17:35.795Z,98738.52
2022-11-08T18:28:03.228Z,98740.05
2022-11-08T18:38:30.754Z,98742.28
2022-11-08T18:48:58.279Z,98746.16
2022-11-08T18:59:25.775Z,98749.38
2022-11-08T19:09:56.613Z,98752.36
2022-11-08T19:20:25.647Z,98755.86
2022-11-08T19:30:54.350Z,98762.80
2022-11-08T19:41:23.396Z,98767.52
2022-11-08T19:51:51.703Z,98770.67
2022-11-08T20:02:20.343Z,98771.02
2022-11-08T20:12:48.997Z,98771.88
2022-11-08T20:23:18.626Z,98774.36
2022-11-08T20:33:46.688Z,98778.54
2022-11-08T20:44:14.729Z,98777.48
2022-11-08T20:54:43.969Z,98770.21
2022-11-08T21:05:12.234Z,98771.05
2022-11-08T21:15:39.767Z,98767.92
2022-11-08T21:26:09.025Z,98763.41
2022-11-08T21:36:36.822Z,98768.08
2022-11-08T21:47:04.310Z,98769.60
2022-11-08T21:57:31.903Z,98769.57
2022-11-08T22:07:59.332Z,98771.90
2022-11-08T22:18:43.448Z,98774.45
2022-11-08T22:29:15.005Z,98774.30
2022-11-08T22:39:42.627Z,98778.27
2022-11-08T22:50:10.917Z,98778.77
2022-11-08T23:00:38.434Z,98781.86
2022-11-08T23:11:23.348Z,98788.70
2022-11-08T23:22:08.528Z,98785.67
2022-11-08T23:32:36.286Z,98785.86
2022-11-08T23:43:27.702Z,98787.06
2022-11-08T23:53:55.047Z,98785.82
